Scarborough, ME

6:56 AM EDT on September 03, 2015 (GMT -0400)
Saco Bay | | Change Station
CLOSE
Current Station
Personal Weather Station
Location: Saco, ME
Elevation: 16 ft
Nearby Weather Stations

Elev 16 ft 43.49 °N, 70.39 °W | Updated 4 minutes ago

Fog
Fog
65.5 °F
Feels Like 65.5 °F
N
0.0
Wind Variable Wind from West

Today
High -- | Low -- °F
--% Chance of Precip.
Yesterday
High -- | Low -- °F
Precip. -- in
6:07 AM 7:13 PM
Waning Gibbous, 71% visible
Pressure 29.85 in
Visibility 7.0 miles
Clouds Scattered Clouds 20000 ft
Dew Point 59 °F
Humidity 80%
Rainfall 0.00 in
Snow Depth Not available.
UV 0 out of 12
Pollen 8.50 out of 12
Air Quality Not available.
Flu Activity Not available.
METAR KPWM 031051Z 00000KT 7SM SCT200 19/18 A2985 RMK AO2 SLP106 T01890178
Pressure 29.85 in
Visibility 7.0 miles
Clouds Scattered Clouds 20000 ft
Dew Point 59 °F
Humidity 80%
Rainfall 0.00 in
Snow Depth Not available.
UV 0 out of 12
Pollen 8.50 out of 12
Air Quality Not available.
Flu Activity Not available.
METAR KPWM 031051Z 00000KT 7SM SCT200 19/18 A2985 RMK AO2 SLP106 T01890178

10-Day Weather Forecast

×

Almanac

Astronomy

Sep. 03, 2015 Rise Set
Actual Time
Civil Twilight
Nautical Twilight
Astronomical Twilight
Moon
Length of Visible Light
Length of Day
Tomorrow will be .
, % of the Moon is Illuminated

Today's Extremes

State Highs State Lows

Community

WunderPhotos

Upload Photos

1,851,933 photos uploaded!

WunderBlogs® & News

Nearby

Air Quality

  Air Quality AQ Index Pollutant
Not available.

Snow Depth

Station Depth Elevation

Earthquake Activity

City Distance Mag. Time & Date
Minimum magnitude displayed is 2.5.

Coastal Water Temperatures

Place Temperature

Stations

Nearby Weather Stations

Station Location Temp. Windchill Dew Point Humidity Wind Precip. Elev Updated Type